Portada
METAR-TAF:

METAR-TAF

Aeropuertos :

Aeropuerto Internacional de Shanghái-Pudong

Shanghái-Pudong, China

latitud: 31-07N, longitud: 121-46E, altitud: 4 m

Observación

El informe se hizo hace 31 minutos, a las 17:30 UTC
Viento 2 kt del sur
Temperatura 20°C
Humedad 94%
Presión 1010 hPa
Visibilidad 10 km o más
sin nubes por debajo de 1500 m y sin presencia de cumulonimbus.

METAR: ZSPD 061730Z 19001MPS CAVOK 20/19 Q1010 NOSIG

Hora: 02:01 (18:01 UTC)

Pronóstico

El informe se hizo hace 2 horas y 56 minutos, a las 15:05 UTC
Pronóstico válido del 06 a las 18 UTC al 07 a las 18 UTC
Viento 10 kt del sureste
Visibilidad: 6000 m
Cielo nuboso a una altura de 1600 ft

TAF: ZSPD 061505Z 0618/0718 13005MPS 6000 BKN016 TX28/0706Z TN20/0621Z

Observaciones y pronósticos meteorológicos de más de 4000 aeropuertos (mensajes METAR y TAF).

Los puntos amarillos y rojos representan las estaciones disponibles.

Ponga el ratón en el punto deseado para ver el nombre de la estación.

Haga clic para ver las observaciones y los pronósticos meteorológicos.

Para cambiar el mapa : haga clic en los botones verdes con una cruz de color negro para hacer un zoom, en el botón verde con un guión para alejar o en las flechas verdes para mapas adyacentes.


METAR-TAF: